Time;durP1;ratioP1;P1;durP2;ratioP2;P2;SDS_P1;SDS_P2;PMS_P1;PMS_P2;Temp;Humidity;BMP_temperature;BMP_pressure;BME280_temperature;BME280_humidity;BME280_pressure;Samples;Min_cycle;Max_cycle;Signal;HPM_P1;HPM_P2
2022/10/27 00:01:06;;;;;;;3.80;3.17;;;18.30;99.90;;;;;;5040848;28;20209;-68
2022/10/27 00:03:32;;;;;;;3.08;2.85;;;18.30;99.90;;;;;;5057441;28;20642;-68
2022/10/27 00:06:05;;;;;;;4.60;3.10;;;18.20;99.90;;;;;;5057479;28;20185;-68
2022/10/27 00:08:31;;;;;;;3.33;3.00;;;18.20;99.90;;;;;;5074502;28;20194;-68
2022/10/27 00:10:59;;;;;;;3.92;3.10;;;18.20;99.90;;;;;;5057740;28;20224;-68
2022/10/27 00:13:25;;;;;;;3.25;2.95;;;18.20;99.90;;;;;;5040563;28;20670;-68
2022/10/27 00:16:01;;;;;;;3.60;3.05;;;18.30;99.90;;;;;;5074045;28;20190;-68
2022/10/27 00:18:27;;;;;;;3.20;2.90;;;18.20;99.90;;;;;;5057109;28;20217;-68
2022/10/27 00:21:03;;;;;;;3.42;2.97;;;18.20;99.90;;;;;;5057446;28;20190;-68
2022/10/27 00:23:30;;;;;;;3.00;2.80;;;18.20;99.90;;;;;;5058346;28;20228;-68
2022/10/27 00:25:56;;;;;;;3.80;3.13;;;18.20;99.90;;;;;;5074147;28;20170;-68
2022/10/27 00:28:23;;;;;;;4.03;3.10;;;18.20;99.90;;;;;;5040757;28;20285;-68
2022/10/27 00:31:01;;;;;;;2.90;2.65;;;18.20;99.90;;;;;;5058510;28;20178;-68
2022/10/27 00:33:27;;;;;;;4.35;3.40;;;18.20;99.90;;;;;;5057150;28;20170;-68
2022/10/27 00:35:53;;;;;;;3.60;2.90;;;18.20;99.90;;;;;;5073828;28;20178;-68
2022/10/27 00:38:22;;;;;;;4.22;2.95;;;18.20;99.90;;;;;;5057253;28;20416;-68
2022/10/27 00:40:48;;;;;;;3.28;2.97;;;18.20;99.90;;;;;;5040506;28;20178;-68
2022/10/27 00:43:46;;;;;;;3.30;2.50;;;18.20;99.90;;;;;;5053992;28;20185;-68
2022/10/27 00:46:40;;;;;;;3.45;2.88;;;18.20;99.90;;;;;;5022554;28;20197;-68
2022/10/27 00:49:16;;;;;;;3.05;2.75;;;18.20;99.90;;;;;;5077388;28;20257;-68
2022/10/27 00:51:52;;;;;;;3.67;2.88;;;18.20;99.90;;;;;;5077083;28;20191;-68
2022/10/27 00:54:21;;;;;;;2.80;2.60;;;18.20;99.90;;;;;;5073692;28;20182;-68
2022/10/27 00:56:50;;;;;;;4.45;2.70;;;18.20;99.90;;;;;;5073792;28;20208;-68
2022/10/27 00:59:17;;;;;;;2.85;2.60;;;18.20;99.90;;;;;;5073752;28;20205;-68
2022/10/27 01:01:45;;;;;;;4.00;2.80;;;18.20;99.90;;;;;;5090711;28;20239;-68
2022/10/27 01:04:13;;;;;;;3.10;2.58;;;18.20;99.90;;;;;;5085916;28;20183;-68
2022/10/27 01:06:38;;;;;;;3.33;2.80;;;18.20;99.90;;;;;;5069070;28;20213;-68
2022/10/27 01:09:05;;;;;;;3.45;2.75;;;18.20;99.90;;;;;;5090475;28;20182;-68
2022/10/27 01:11:31;;;;;;;3.80;2.90;;;18.20;99.90;;;;;;5073876;28;20186;-68
2022/10/27 01:13:57;;;;;;;3.58;2.85;;;18.20;99.90;;;;;;5074604;28;20197;-68
2022/10/27 01:17:00;;;;;;;4.45;2.70;;;18.20;99.90;;;;;;5073554;28;20322;-68
2022/10/27 01:20:07;;;;;;;2.83;2.60;;;18.20;99.90;;;;;;5090387;28;20206;-68
2022/10/27 01:23:00;;;;;;;3.00;2.70;;;18.20;99.90;;;;;;5073383;28;20185;-68
2022/10/27 01:26:18;;;;;;;2.90;2.67;;;18.20;99.90;;;;;;5073898;28;20193;-68
2022/10/27 01:29:27;;;;;;;2.80;2.42;;;18.20;99.90;;;;;;5085201;22;20305;-72
2022/10/27 01:32:23;;;;;;;3.78;3.10;;;18.20;99.90;;;;;;5053166;28;20557;-72
2022/10/27 01:35:05;;;;;;;3.38;2.70;;;18.20;99.90;;;;;;5053299;28;20179;-72
2022/10/27 01:38:12;;;;;;;3.00;2.70;;;18.20;99.90;;;;;;5052884;28;20236;-72
2022/10/27 01:40:58;;;;;;;2.72;2.40;;;18.20;99.90;;;;;;5053409;28;20268;-70
2022/10/27 01:43:28;;;;;;;2.70;2.30;;;18.20;99.90;;;;;;5036766;28;20171;-69
2022/10/27 01:45:55;;;;;;;3.10;2.75;;;18.20;99.90;;;;;;5036439;28;20194;-70
2022/10/27 01:48:22;;;;;;;3.38;2.60;;;18.20;99.90;;;;;;5036532;28;20214;-70
2022/10/27 01:50:48;;;;;;;2.97;2.72;;;18.20;99.90;;;;;;5036332;28;20187;-69
2022/10/27 01:53:14;;;;;;;3.65;2.90;;;18.20;99.90;;;;;;5035854;28;20650;-69
2022/10/27 01:56:05;;;;;;;3.08;2.70;;;18.20;99.90;;;;;;5053982;28;20280;-70
2022/10/27 01:59:12;;;;;;;3.20;2.42;;;18.10;99.90;;;;;;5019289;28;20218;-70
2022/10/27 02:01:52;;;;;;;3.83;2.55;;;18.20;99.90;;;;;;5052855;28;20178;-69
2022/10/27 02:04:38;;;;;;;4.43;2.50;;;18.20;99.90;;;;;;5034534;28;20179;-70
2022/10/27 02:07:28;;;;;;;2.50;2.30;;;18.20;99.90;;;;;;5052351;28;20179;-69
2022/10/27 02:10:29;;;;;;;2.30;2.08;;;18.10;99.90;;;;;;5019334;28;20193;-70
2022/10/27 02:12:57;;;;;;;2.30;2.10;;;18.20;99.90;;;;;;5016924;28;20245;-70
2022/10/27 02:15:32;;;;;;;2.92;2.40;;;18.10;99.90;;;;;;5019484;28;20202;-70
2022/10/27 02:18:25;;;;;;;2.08;1.88;;;18.10;99.90;;;;;;5035670;28;20198;-69
2022/10/27 02:20:58;;;;;;;3.78;2.40;;;18.10;99.90;;;;;;5035751;28;20597;-69
2022/10/27 02:23:24;;;;;;;2.90;2.60;;;18.20;99.90;;;;;;5035469;28;20209;-69
2022/10/27 02:26:25;;;;;;;2.65;2.45;;;18.20;99.90;;;;;;5052434;28;20630;-70
2022/10/27 02:28:59;;;;;;;3.15;2.40;;;18.10;99.90;;;;;;5025286;28;20256;-70
2022/10/27 02:31:38;;;;;;;2.40;2.20;;;18.10;99.90;;;;;;5052329;28;20182;-70
2022/10/27 02:34:05;;;;;;;2.53;2.00;;;18.10;99.90;;;;;;5035431;28;20175;-69
2022/10/27 02:36:32;;;;;;;2.38;2.00;;;18.10;99.90;;;;;;5051949;28;20190;-70
2022/10/27 02:38:58;;;;;;;3.15;2.53;;;18.10;99.90;;;;;;5035352;28;20234;-70
2022/10/27 02:41:23;;;;;;;2.22;2.03;;;18.10;99.90;;;;;;5035213;28;20244;-69
2022/10/27 02:43:49;;;;;;;3.05;2.47;;;18.10;99.90;;;;;;5051919;28;20182;-70
2022/10/27 02:46:15;;;;;;;2.67;2.13;;;18.10;99.90;;;;;;5051755;28;20174;-70
2022/10/27 02:48:40;;;;;;;2.53;2.33;;;18.10;99.90;;;;;;5051873;28;20206;-70
2022/10/27 02:51:06;;;;;;;2.42;2.15;;;18.10;99.90;;;;;;5052264;28;20182;-70
2022/10/27 02:53:32;;;;;;;2.10;2.00;;;18.10;99.90;;;;;;5035394;28;20277;-69
2022/10/27 02:55:58;;;;;;;2.38;2.17;;;18.10;99.90;;;;;;5052223;28;20186;-70
2022/10/27 02:58:23;;;;;;;2.63;2.20;;;18.10;99.90;;;;;;5051395;28;20206;-69
2022/10/27 03:00:54;;;;;;;2.28;2.08;;;18.10;99.90;;;;;;5054670;28;20236;-69
2022/10/27 03:03:21;;;;;;;2.50;2.30;;;18.10;99.90;;;;;;5054870;28;20185;-69
2022/10/27 03:05:47;;;;;;;2.08;1.98;;;18.10;99.90;;;;;;5054976;28;20273;-70
2022/10/27 03:08:14;;;;;;;2.85;2.20;;;18.10;99.90;;;;;;5072682;28;20276;-70
2022/10/27 03:10:39;;;;;;;2.45;2.22;;;18.10;99.90;;;;;;5071627;28;20190;-70
2022/10/27 03:13:05;;;;;;;2.60;2.40;;;18.10;99.90;;;;;;5038196;28;20185;-69
2022/10/27 03:15:31;;;;;;;2.50;2.30;;;18.10;99.90;;;;;;5053998;28;20208;-70
2022/10/27 03:17:57;;;;;;;2.53;1.98;;;18.10;99.90;;;;;;5071287;28;20202;-69
2022/10/27 03:20:22;;;;;;;2.15;1.95;;;18.10;99.90;;;;;;5054428;28;20286;-70
2022/10/27 03:22:48;;;;;;;2.90;1.92;;;18.10;99.90;;;;;;5054584;28;20190;-69
2022/10/27 03:25:14;;;;;;;2.83;1.80;;;18.10;99.90;;;;;;5071303;28;20182;-70
2022/10/27 03:27:44;;;;;;;2.40;2.20;;;18.10;99.90;;;;;;5054590;28;20217;-70
2022/10/27 03:30:15;;;;;;;2.95;2.30;;;18.10;99.90;;;;;;5071423;28;20186;-70
2022/10/27 03:32:47;;;;;;;2.92;2.33;;;18.10;99.90;;;;;;5054463;28;20289;-70
2022/10/27 03:35:14;;;;;;;2.47;1.88;;;18.10;99.90;;;;;;5070888;28;20220;-70
2022/10/27 03:37:40;;;;;;;2.22;2.08;;;18.10;99.90;;;;;;5054177;28;20481;-69
2022/10/27 03:40:07;;;;;;;2.75;2.05;;;18.10;99.90;;;;;;5072069;28;20830;-70
2022/10/27 03:42:33;;;;;;;3.50;1.90;;;18.10;99.90;;;;;;5054382;28;20174;-72
2022/10/27 03:44:59;;;;;;;2.22;2.03;;;18.10;99.90;;;;;;5054436;28;20185;-72
2022/10/27 03:47:25;;;;;;;2.88;1.83;;;18.10;99.90;;;;;;5071216;28;20690;-72
2022/10/27 03:49:51;;;;;;;2.35;2.10;;;18.10;99.90;;;;;;5054390;28;20189;-71
2022/10/27 03:52:16;;;;;;;2.60;2.40;;;18.10;99.90;;;;;;5054718;28;20174;-70
2022/10/27 03:54:42;;;;;;;2.38;2.17;;;18.00;99.90;;;;;;5054113;28;20188;-71
2022/10/27 03:57:11;;;;;;;2.20;2.00;;;18.00;99.90;;;;;;5054247;28;20603;-70
2022/10/27 03:59:38;;;;;;;2.20;2.00;;;18.10;99.90;;;;;;5070832;28;20210;-70
2022/10/27 04:02:04;;;;;;;1.83;1.73;;;18.10;99.90;;;;;;5071027;28;20174;-71
2022/10/27 04:04:30;;;;;;;2.42;1.88;;;18.00;99.90;;;;;;5070657;28;20185;-70
2022/10/27 04:06:55;;;;;;;2.60;2.05;;;18.00;99.90;;;;;;5054082;28;20240;-70
2022/10/27 04:09:21;;;;;;;4.20;2.17;;;18.10;99.90;;;;;;5071106;28;20174;-70
2022/10/27 04:11:47;;;;;;;2.17;1.80;;;18.10;99.90;;;;;;5054420;28;20196;-70
2022/10/27 04:14:13;;;;;;;2.20;2.00;;;18.00;99.90;;;;;;5070744;28;20177;-70
2022/10/27 04:16:39;;;;;;;2.22;1.92;;;18.00;99.90;;;;;;5054289;28;20573;-70
2022/10/27 04:19:05;;;;;;;2.40;2.20;;;18.00;99.90;;;;;;5070363;28;20279;-71
2022/10/27 04:21:30;;;;;;;4.25;2.38;;;18.00;99.90;;;;;;5070777;28;20189;-70
2022/10/27 04:23:56;;;;;;;2.22;2.03;;;18.00;99.90;;;;;;5053605;28;20185;-71
2022/10/27 04:26:22;;;;;;;3.25;2.13;;;18.10;99.90;;;;;;5070556;28;20170;-70
2022/10/27 04:28:47;;;;;;;2.25;2.05;;;18.00;99.90;;;;;;5039754;28;20209;-71
2022/10/27 04:31:13;;;;;;;2.70;2.03;;;18.00;99.90;;;;;;5041136;28;20216;-71
2022/10/27 04:33:40;;;;;;;2.30;2.10;;;18.00;99.90;;;;;;5074050;28;20271;-71
2022/10/27 04:36:06;;;;;;;2.22;2.03;;;18.00;99.90;;;;;;5057519;28;20223;-71
2022/10/27 04:38:32;;;;;;;2.63;2.40;;;18.00;99.90;;;;;;5057504;28;20206;-71
2022/10/27 04:41:01;;;;;;;2.83;2.47;;;18.00;99.90;;;;;;5074427;28;20271;-70
2022/10/27 04:43:28;;;;;;;2.67;2.20;;;18.00;99.90;;;;;;5057488;28;20645;-70
2022/10/27 04:45:53;;;;;;;2.47;2.25;;;18.00;99.90;;;;;;5074326;28;20182;-70
2022/10/27 04:48:19;;;;;;;2.30;2.10;;;18.00;99.90;;;;;;5073854;28;20232;-71
2022/10/27 04:50:45;;;;;;;2.28;2.08;;;18.00;99.90;;;;;;5073962;28;20181;-71
2022/10/27 04:53:10;;;;;;;2.30;2.10;;;18.00;99.90;;;;;;5057035;28;20212;-70
2022/10/27 04:55:36;;;;;;;2.65;2.17;;;18.00;99.90;;;;;;5056984;28;20184;-70
2022/10/27 04:58:02;;;;;;;2.53;2.33;;;18.00;99.90;;;;;;5073785;28;20248;-70
2022/10/27 05:00:28;;;;;;;2.28;2.00;;;18.00;99.90;;;;;;5057129;28;20260;-70
2022/10/27 05:02:56;;;;;;;2.50;2.22;;;18.00;99.90;;;;;;5056988;28;20542;-70
2022/10/27 05:05:26;;;;;;;2.53;2.08;;;18.00;99.90;;;;;;5073831;28;20664;-70
2022/10/27 05:07:59;;;;;;;2.63;2.42;;;18.00;99.90;;;;;;5073881;28;20229;-70
2022/10/27 05:10:26;;;;;;;2.25;2.05;;;18.00;99.90;;;;;;5056901;28;20660;-71
2022/10/27 05:12:52;;;;;;;3.13;2.17;;;18.00;99.90;;;;;;5056830;28;20177;-71
2022/10/27 05:15:18;;;;;;;2.65;2.13;;;18.00;99.90;;;;;;5056745;28;20239;-71
2022/10/27 05:17:44;;;;;;;3.08;2.28;;;18.00;99.90;;;;;;5074607;28;20197;-71
2022/10/27 05:20:11;;;;;;;2.40;2.20;;;18.00;99.90;;;;;;5073537;28;20251;-70
2022/10/27 05:22:38;;;;;;;2.78;2.58;;;18.00;99.90;;;;;;5056870;28;20196;-70
2022/10/27 05:25:06;;;;;;;2.38;2.17;;;18.00;99.90;;;;;;5056497;28;20178;-70
2022/10/27 05:27:32;;;;;;;3.22;2.40;;;17.90;99.90;;;;;;5056611;28;20688;-70
2022/10/27 05:29:58;;;;;;;2.53;2.30;;;18.00;99.90;;;;;;5039955;28;20268;-70
2022/10/27 05:32:24;;;;;;;2.33;2.13;;;18.00;99.90;;;;;;5073130;28;20225;-70
2022/10/27 05:34:50;;;;;;;3.40;2.28;;;18.00;99.90;;;;;;5072821;28;20186;-71
2022/10/27 05:37:15;;;;;;;2.70;2.50;;;18.00;99.90;;;;;;5056081;28;20232;-71
2022/10/27 05:39:41;;;;;;;2.50;2.30;;;18.00;99.90;;;;;;5072857;28;20213;-71
2022/10/27 05:42:07;;;;;;;3.67;2.72;;;18.00;99.90;;;;;;5039756;28;20608;-70
2022/10/27 05:44:33;;;;;;;2.50;2.30;;;18.00;99.90;;;;;;5072704;28;20243;-70
2022/10/27 05:46:59;;;;;;;3.15;2.53;;;17.90;99.90;;;;;;5056168;28;20209;-70
2022/10/27 05:49:24;;;;;;;2.95;2.65;;;17.90;99.90;;;;;;5056414;28;20571;-71
2022/10/27 05:51:51;;;;;;;3.13;2.83;;;18.00;99.90;;;;;;5072685;28;20198;-71
2022/10/27 05:54:17;;;;;;;4.03;2.70;;;18.00;99.90;;;;;;5039170;28;20215;-71
2022/10/27 05:56:44;;;;;;;2.80;2.47;;;18.00;99.90;;;;;;5039365;28;20194;-71
2022/10/27 05:59:12;;;;;;;3.13;2.55;;;18.00;99.90;;;;;;5072646;28;20210;-71
2022/10/27 06:01:38;;;;;;;2.75;2.53;;;17.90;99.90;;;;;;5039536;28;20185;-71
2022/10/27 06:04:04;;;;;;;3.00;2.55;;;18.00;99.90;;;;;;5055847;28;20166;-72
2022/10/27 06:06:30;;;;;;;3.53;2.45;;;18.00;99.90;;;;;;5073696;28;20169;-71
2022/10/27 06:08:55;;;;;;;2.72;2.45;;;18.00;99.90;;;;;;5072528;28;20201;-71
2022/10/27 06:11:21;;;;;;;2.75;2.50;;;18.00;99.90;;;;;;5055793;28;20202;-71
2022/10/27 06:13:51;;;;;;;3.50;2.58;;;18.00;99.90;;;;;;5055769;28;20194;-71
2022/10/27 06:16:20;;;;;;;5.15;3.08;;;17.90;99.90;;;;;;5073646;28;20173;-72
2022/10/27 06:18:46;;;;;;;4.75;2.80;;;17.90;99.90;;;;;;5039264;28;20213;-71
2022/10/27 06:21:12;;;;;;;3.58;2.83;;;18.00;99.90;;;;;;5055334;28;20196;-72
2022/10/27 06:23:40;;;;;;;2.70;2.50;;;17.90;99.90;;;;;;5054753;28;20177;-71
2022/10/27 06:26:06;;;;;;;3.00;2.70;;;18.00;99.90;;;;;;5055087;28;20253;-72
2022/10/27 06:28:32;;;;;;;3.28;2.72;;;18.00;99.90;;;;;;5054213;28;20205;-71
2022/10/27 06:30:58;;;;;;;2.90;2.70;;;17.90;99.90;;;;;;5054917;28;20192;-72
2022/10/27 06:33:23;;;;;;;3.80;2.80;;;17.90;99.90;;;;;;5054729;28;20185;-70
2022/10/27 06:35:49;;;;;;;3.30;2.83;;;17.90;99.90;;;;;;5071375;28;20182;-72
2022/10/27 06:38:15;;;;;;;3.85;2.90;;;17.90;99.90;;;;;;5054656;28;20212;-72
2022/10/27 06:40:45;;;;;;;4.75;3.25;;;17.90;99.90;;;;;;5054912;28;20222;-72
2022/10/27 06:43:12;;;;;;;4.07;2.97;;;18.00;99.90;;;;;;5072896;28;20587;-72
2022/10/27 06:45:39;;;;;;;2.85;2.65;;;17.90;99.90;;;;;;5054422;28;20265;-72
2022/10/27 06:48:07;;;;;;;5.00;2.97;;;18.00;99.90;;;;;;5054698;28;20198;-72
2022/10/27 06:50:33;;;;;;;4.05;3.13;;;18.00;99.90;;;;;;5053836;28;20645;-72
2022/10/27 06:53:00;;;;;;;3.42;2.60;;;17.90;99.90;;;;;;5054745;28;20248;-72
2022/10/27 06:55:27;;;;;;;2.47;2.28;;;17.90;99.90;;;;;;5037866;28;20189;-72
2022/10/27 06:57:52;;;;;;;3.55;2.72;;;18.00;99.90;;;;;;5038043;28;20245;-72
2022/10/27 07:00:19;;;;;;;2.95;2.55;;;18.00;99.90;;;;;;5054047;28;20236;-72
2022/10/27 07:02:44;;;;;;;4.68;2.92;;;18.00;99.90;;;;;;5070971;28;20657;-72
2022/10/27 07:05:11;;;;;;;3.63;2.90;;;17.90;99.90;;;;;;5053989;28;20209;-72
2022/10/27 07:07:37;;;;;;;2.97;2.70;;;18.00;99.90;;;;;;5072443;28;20213;-72
2022/10/27 07:10:06;;;;;;;3.13;2.83;;;17.90;99.90;;;;;;5054356;28;20204;-72
2022/10/27 07:12:33;;;;;;;4.57;2.70;;;18.00;99.90;;;;;;5054170;28;20185;-72
2022/10/27 07:14:59;;;;;;;2.70;2.50;;;17.90;99.90;;;;;;5071970;28;20266;-72
2022/10/27 07:17:25;;;;;;;3.63;2.70;;;18.00;99.90;;;;;;5054065;28;20205;-72
2022/10/27 07:19:50;;;;;;;3.03;2.63;;;17.90;99.90;;;;;;5054072;28;20759;-72
2022/10/27 07:22:17;;;;;;;3.40;3.10;;;17.90;99.90;;;;;;5070923;28;20197;-72
2022/10/27 07:24:43;;;;;;;3.00;2.75;;;18.00;99.90;;;;;;5053781;28;20204;-72
2022/10/27 07:29:44;;;;;;;3.65;2.70;;;18.00;99.90;;;;;;5026134;28;20272;-68
2022/10/27 07:32:10;;;;;;;3.40;3.10;;;18.00;99.90;;;;;;5030890;28;20191;-67
2022/10/27 07:34:35;;;;;;;3.88;2.80;;;18.00;99.90;;;;;;5030700;28;20191;-67
2022/10/27 07:37:01;;;;;;;3.72;2.97;;;18.00;99.90;;;;;;5030595;28;20188;-67
2022/10/27 07:39:27;;;;;;;3.40;3.08;;;18.00;99.90;;;;;;5030070;28;20218;-67
2022/10/27 07:41:52;;;;;;;5.93;3.00;;;18.00;99.90;;;;;;5012051;28;20220;-68
2022/10/27 07:44:18;;;;;;;2.58;2.38;;;18.00;99.90;;;;;;5010600;28;20200;-68
2022/10/27 07:46:44;;;;;;;4.60;2.72;;;18.00;99.90;;;;;;5011098;28;20180;-68
2022/10/27 07:49:09;;;;;;;2.90;2.60;;;18.00;99.90;;;;;;5010836;28;20235;-67
2022/10/27 07:51:35;;;;;;;3.75;2.63;;;18.00;99.90;;;;;;4994521;28;20192;-67
2022/10/27 07:54:01;;;;;;;2.75;2.55;;;18.00;99.90;;;;;;5010694;28;20188;-68
2022/10/27 07:56:27;;;;;;;3.28;2.95;;;18.00;99.90;;;;;;5010780;28;20246;-68
2022/10/27 07:58:52;;;;;;;3.20;2.63;;;18.00;99.90;;;;;;5010531;28;20226;-67
2022/10/27 08:01:18;;;;;;;2.58;2.38;;;18.00;99.90;;;;;;5011246;28;20184;-68
2022/10/27 08:03:44;;;;;;;3.80;2.55;;;18.00;99.90;;;;;;5014451;28;20190;-68
2022/10/27 08:06:09;;;;;;;3.83;2.67;;;18.10;99.90;;;;;;4998288;28;20242;-67
2022/10/27 08:08:35;;;;;;;2.88;2.55;;;18.00;99.90;;;;;;5014627;28;20208;-68
2022/10/27 08:11:01;;;;;;;3.97;2.60;;;18.10;99.90;;;;;;5014763;28;20184;-67
2022/10/27 08:13:26;;;;;;;3.67;2.90;;;18.10;99.90;;;;;;4998033;28;20686;-67
2022/10/27 08:15:58;;;;;;;4.50;2.72;;;18.10;99.90;;;;;;5015196;28;20184;-68
2022/10/27 08:18:24;;;;;;;2.55;2.35;;;18.10;99.90;;;;;;5014573;28;20211;-67
2022/10/27 08:20:49;;;;;;;4.07;3.00;;;18.10;99.90;;;;;;5014527;28;20291;-67
2022/10/27 08:23:19;;;;;;;3.53;2.78;;;18.10;99.90;;;;;;5014485;28;20645;-68
2022/10/27 08:25:45;;;;;;;3.92;2.60;;;18.10;99.90;;;;;;5014186;28;20180;-67
2022/10/27 08:28:13;;;;;;;2.83;2.35;;;18.10;99.90;;;;;;5014038;28;20214;-67
2022/10/27 08:30:40;;;;;;;5.00;2.85;;;18.20;99.90;;;;;;5015765;28;20195;-68
2022/10/27 08:33:07;;;;;;;2.50;2.20;;;18.10;99.90;;;;;;5014333;28;20192;-68
2022/10/27 08:35:34;;;;;;;2.58;2.38;;;18.20;99.90;;;;;;5015193;28;20191;-68
2022/10/27 08:38:05;;;;;;;4.07;2.63;;;18.20;99.90;;;;;;5014045;28;20294;-68
2022/10/27 08:40:48;;;;;;;2.85;2.42;;;18.20;99.90;;;;;;4997905;28;20255;-68
2022/10/27 08:43:59;;;;;;;3.05;2.38;;;18.20;99.90;;;;;;4997874;28;20183;-68
2022/10/27 08:46:48;;;;;;;3.80;2.53;;;18.20;99.90;;;;;;5013863;28;20194;-67
2022/10/27 08:49:44;;;;;;;3.15;2.03;;;18.20;99.90;;;;;;5014125;28;20270;-68
2022/10/27 08:52:28;;;;;;;4.65;2.50;;;18.20;99.90;;;;;;5010985;28;20227;-67
2022/10/27 08:55:13;;;;;;;3.15;2.60;;;18.30;99.90;;;;;;5013494;28;20180;-68
2022/10/27 08:57:48;;;;;;;3.25;2.33;;;18.20;99.90;;;;;;5013870;28;20239;-67
2022/10/27 09:00:15;;;;;;;2.53;2.20;;;18.20;99.90;;;;;;5013774;28;20215;-68
2022/10/27 09:03:03;;;;;;;2.33;1.90;;;18.20;99.90;;;;;;4997111;28;20184;-68
2022/10/27 09:05:59;;;;;;;2.38;2.17;;;18.20;99.90;;;;;;4999738;28;20184;-68
2022/10/27 09:08:41;;;;;;;2.50;2.30;;;18.20;99.90;;;;;;5013768;28;20247;-67
2022/10/27 09:11:40;;;;;;;2.72;2.10;;;18.20;99.90;;;;;;5013492;28;20188;-67
2022/10/27 09:14:30;;;;;;;2.53;2.20;;;18.20;99.90;;;;;;4996218;28;20212;-67
2022/10/27 09:17:32;;;;;;;2.60;2.22;;;18.20;99.90;;;;;;4996921;28;20195;-68
2022/10/27 09:20:07;;;;;;;3.35;2.25;;;18.30;99.90;;;;;;5013332;28;20242;-68
2022/10/27 09:22:40;;;;;;;2.10;1.90;;;18.20;99.90;;;;;;5014282;28;20195;-68
2022/10/27 09:25:18;;;;;;;4.25;2.28;;;18.30;99.90;;;;;;4980551;28;20192;-68
2022/10/27 09:27:50;;;;;;;2.53;2.05;;;18.20;99.90;;;;;;5012993;28;20223;-67
2022/10/27 09:30:16;;;;;;;2.03;1.83;;;18.30;99.90;;;;;;4996811;28;20188;-68
2022/10/27 09:32:48;;;;;;;3.85;2.00;;;18.20;99.90;;;;;;4996989;28;20286;-68
2022/10/27 09:35:22;;;;;;;2.83;2.30;;;18.20;99.90;;;;;;4996696;28;20682;-67
2022/10/27 09:37:48;;;;;;;3.15;1.80;;;18.20;99.90;;;;;;5014117;28;20203;-68
2022/10/27 09:40:21;;;;;;;2.55;1.98;;;18.20;99.90;;;;;;5014025;28;20230;-68
2022/10/27 09:42:53;;;;;;;2.97;1.83;;;18.20;99.90;;;;;;4980343;28;20188;-67
2022/10/27 09:45:25;;;;;;;2.50;2.10;;;18.30;99.90;;;;;;4997064;28;20219;-67
2022/10/27 09:48:05;;;;;;;3.78;2.20;;;18.20;99.90;;;;;;4995777;28;20195;-67
2022/10/27 09:51:13;;;;;;;3.75;2.65;;;18.20;99.90;;;;;;5014172;28;20184;-68
2022/10/27 09:53:46;;;;;;;2.10;1.90;;;18.20;99.90;;;;;;4993092;28;20291;-68
2022/10/27 09:56:22;;;;;;;2.17;1.98;;;18.30;99.90;;;;;;5013370;28;20184;-68
2022/10/27 09:58:59;;;;;;;2.00;1.80;;;18.20;99.90;;;;;;5012964;28;20207;-67
2022/10/27 10:01:46;;;;;;;3.22;1.77;;;18.30;99.90;;;;;;5013267;28;20183;-67
2022/10/27 10:04:22;;;;;;;2.20;2.00;;;18.30;99.90;;;;;;4996692;28;20234;-67
2022/10/27 10:06:54;;;;;;;2.05;1.83;;;18.30;99.90;;;;;;5014139;28;20171;-67
2022/10/27 10:09:28;;;;;;;3.05;2.00;;;18.30;99.90;;;;;;4996330;28;20211;-68
2022/10/27 10:12:23;;;;;;;2.20;2.00;;;18.30;99.90;;;;;;5012957;28;20177;-67
2022/10/27 10:14:51;;;;;;;2.03;1.73;;;18.30;99.90;;;;;;5012839;28;20180;-67
2022/10/27 10:17:26;;;;;;;2.78;1.92;;;18.30;99.90;;;;;;5012582;28;20176;-67
2022/10/27 10:19:56;;;;;;;3.88;1.73;;;18.30;99.90;;;;;;4996606;28;20215;-67
2022/10/27 10:22:31;;;;;;;2.65;1.90;;;18.30;99.90;;;;;;5012693;28;20202;-67
2022/10/27 10:25:23;;;;;;;2.67;2.10;;;18.30;99.90;;;;;;5012901;28;20180;-67
2022/10/27 10:27:58;;;;;;;2.40;2.20;;;18.30;99.90;;;;;;5012393;28;20212;-68
2022/10/27 10:30:25;;;;;;;2.50;1.95;;;18.30;99.90;;;;;;5012490;28;20291;-67
2022/10/27 10:32:55;;;;;;;2.00;1.80;;;18.30;99.90;;;;;;4995961;28;20199;-67
2022/10/27 10:35:45;;;;;;;3.78;2.28;;;18.30;99.90;;;;;;5011676;28;20230;-68
2022/10/27 10:38:23;;;;;;;4.25;2.10;;;18.30;99.90;;;;;;4993708;28;20211;-67
2022/10/27 10:41:12;;;;;;;4.35;2.13;;;18.30;99.90;;;;;;4992666;28;20312;-67
2022/10/27 10:43:39;;;;;;;3.67;2.15;;;18.30;99.90;;;;;;4979038;28;20179;-67
2022/10/27 10:46:18;;;;;;;2.15;1.80;;;18.30;99.90;;;;;;5012006;28;20825;-67
2022/10/27 10:48:52;;;;;;;2.90;2.10;;;18.30;99.90;;;;;;4995851;28;20571;-67
2022/10/27 10:51:35;;;;;;;2.47;1.90;;;18.30;99.90;;;;;;4995762;28;20211;-67
2022/10/27 10:54:12;;;;;;;3.67;2.00;;;18.30;99.90;;;;;;4995875;28;20176;-67
2022/10/27 10:56:38;;;;;;;3.58;2.08;;;18.40;99.90;;;;;;4996073;28;20218;-67
2022/10/27 10:59:14;;;;;;;4.53;2.20;;;18.30;99.90;;;;;;5011904;28;20212;-67
2022/10/27 11:02:05;;;;;;;4.20;2.10;;;18.40;99.90;;;;;;5012192;28;20196;-67
2022/10/27 11:04:46;;;;;;;2.38;2.00;;;18.30;99.90;;;;;;5012035;28;20654;-67
2022/10/27 11:07:26;;;;;;;2.67;1.98;;;18.30;99.90;;;;;;5012184;28;20176;-67
2022/10/27 11:10:05;;;;;;;3.88;2.03;;;18.30;99.90;;;;;;5013143;28;20207;-67
2022/10/27 11:13:00;;;;;;;4.07;2.20;;;18.40;99.90;;;;;;5010455;28;20267;-67
2022/10/27 11:15:34;;;;;;;4.32;2.25;;;18.40;99.90;;;;;;4995253;28;20624;-67
2022/10/27 11:18:26;;;;;;;3.80;2.00;;;18.30;99.90;;;;;;5011455;28;20222;-69
2022/10/27 11:21:06;;;;;;;3.30;2.05;;;18.40;99.90;;;;;;5008415;28;20212;-66
2022/10/27 11:23:45;;;;;;;3.03;1.90;;;18.40;99.90;;;;;;5001646;28;20179;-67
2022/10/27 11:26:17;;;;;;;5.47;2.25;;;18.40;99.90;;;;;;5014868;28;20187;-68
2022/10/27 11:28:50;;;;;;;4.20;2.08;;;18.40;99.90;;;;;;5014712;28;20361;-67
2022/10/27 11:31:27;;;;;;;2.50;2.05;;;18.40;99.90;;;;;;5014731;28;20164;-67
2022/10/27 11:34:23;;;;;;;3.05;2.05;;;18.40;99.90;;;;;;5014601;28;20191;-67
2022/10/27 11:36:58;;;;;;;5.20;2.05;;;18.40;99.90;;;;;;5014310;28;20199;-67
2022/10/27 11:39:55;;;;;;;1.95;1.77;;;18.40;99.90;;;;;;5014726;28;20241;-67
2022/10/27 11:42:42;;;;;;;2.58;2.00;;;18.40;99.90;;;;;;5032071;28;20226;-67
2022/10/27 11:45:25;;;;;;;2.80;2.00;;;18.40;99.90;;;;;;5014297;28;20210;-65
2022/10/27 11:48:06;;;;;;;4.93;1.80;;;18.40;99.90;;;;;;5020223;28;20235;-67
2022/10/27 11:50:58;;;;;;;2.72;1.88;;;18.40;99.90;;;;;;5016486;28;20199;-68
2022/10/27 11:53:24;;;;;;;4.95;2.10;;;18.40;99.90;;;;;;4976091;28;20205;-67
2022/10/27 11:56:48;;;;;;;3.28;1.70;;;18.40;99.90;;;;;;4975270;28;20194;-67
2022/10/27 11:59:31;;;;;;;3.15;1.70;;;18.40;99.90;;;;;;5001722;28;20219;-68
2022/10/27 12:02:37;;;;;;;3.47;2.08;;;18.40;99.90;;;;;;5025037;28;20199;-67
2022/10/27 12:05:15;;;;;;;5.47;2.20;;;18.40;99.90;;;;;;5018250;28;20194;-68
2022/10/27 12:07:53;;;;;;;7.95;2.00;;;18.40;99.90;;;;;;5017831;28;20207;-68
2022/10/27 12:11:00;;;;;;;4.82;2.25;;;18.40;99.90;;;;;;4999306;28;20172;-67
2022/10/27 12:13:46;;;;;;;2.45;1.80;;;18.40;99.90;;;;;;4983008;28;20203;-67
2022/10/27 12:16:23;;;;;;;2.42;1.80;;;18.40;99.90;;;;;;5012385;28;20172;-68
2022/10/27 12:19:10;;;;;;;2.83;1.80;;;18.40;99.90;;;;;;5011307;28;20208;-68
2022/10/27 12:21:47;;;;;;;2.65;1.98;;;18.40;99.90;;;;;;5010967;28;20727;-68
2022/10/27 12:24:23;;;;;;;5.68;2.28;;;18.40;99.90;;;;;;5019197;28;20248;-67
2022/10/27 12:27:21;;;;;;;3.50;1.90;;;18.40;99.90;;;;;;5010881;28;20274;-68
2022/10/27 12:29:54;;;;;;;4.47;2.17;;;18.40;99.90;;;;;;5009616;28;20659;-68
2022/10/27 12:32:33;;;;;;;4.07;2.15;;;18.40;99.90;;;;;;5006756;28;20173;-68
2022/10/27 12:35:05;;;;;;;4.03;1.75;;;18.40;99.90;;;;;;4998621;28;20187;-68
2022/10/27 12:37:53;;;;;;;4.53;2.05;;;18.40;99.90;;;;;;4994453;28;20184;-68
2022/10/27 12:40:57;;;;;;;2.20;1.70;;;18.40;99.90;;;;;;4998059;28;20759;-69
2022/10/27 12:43:43;;;;;;;2.30;1.63;;;18.40;99.90;;;;;;4963923;28;20192;-68
2022/10/27 12:46:36;;;;;;;2.75;2.08;;;18.50;99.90;;;;;;4982552;28;20191;-68
2022/10/27 12:49:24;;;;;;;4.60;1.98;;;18.40;99.90;;;;;;5012106;28;20307;-68
2022/10/27 12:52:22;;;;;;;3.72;1.80;;;18.50;99.90;;;;;;5014690;28;20322;-67
2022/10/27 12:55:37;;;;;;;3.53;2.05;;;18.50;99.90;;;;;;5014213;28;20267;-67
2022/10/27 12:58:20;;;;;;;3.70;1.90;;;18.40;99.90;;;;;;5015446;28;20212;-67
2022/10/27 13:00:59;;;;;;;3.88;1.63;;;18.50;99.90;;;;;;5014346;28;20204;-67
2022/10/27 13:03:41;;;;;;;4.25;1.90;;;18.50;99.90;;;;;;5030513;28;20184;-68
2022/10/27 13:06:50;;;;;;;2.72;1.70;;;18.40;99.90;;;;;;5015088;28;20602;-68
2022/10/27 13:10:15;;;;;;;2.05;1.83;;;18.40;99.90;;;;;;5030304;28;20218;-68
2022/10/27 13:13:12;;;;;;;4.03;1.90;;;18.50;99.90;;;;;;5013919;28;20188;-68
2022/10/27 13:16:13;;;;;;;2.70;2.30;;;18.50;99.90;;;;;;5029891;28;20566;-67
2022/10/27 13:19:07;;;;;;;3.85;1.98;;;18.50;99.90;;;;;;4975639;28;20304;-68
2022/10/27 13:21:51;;;;;;;2.00;1.63;;;18.50;99.90;;;;;;4994305;28;20697;-67
2022/10/27 13:24:33;;;;;;;3.15;2.00;;;18.50;99.90;;;;;;4993978;28;20272;-67
2022/10/27 13:27:25;;;;;;;2.45;1.75;;;18.50;99.90;;;;;;4994074;28;20181;-67